createdAt,value
2022-11-15T00:01:57.562Z,33.47
2022-11-15T00:04:43.179Z,34.77
2022-11-15T00:07:54.060Z,35.67
2022-11-15T00:10:35.381Z,33.77
2022-11-15T00:13:21.009Z,34.87
2022-11-15T00:16:07.035Z,34.53
2022-11-15T00:18:52.683Z,33.90
2022-11-15T00:21:38.430Z,32.47
2022-11-15T00:24:24.361Z,33.70
2022-11-15T00:27:10.251Z,34.87
2022-11-15T00:29:56.173Z,31.40
2022-11-15T00:32:41.853Z,32.23
2022-11-15T00:35:28.143Z,36.43
2022-11-15T00:38:13.764Z,32.80
2022-11-15T00:40:59.428Z,32.80
2022-11-15T00:43:45.939Z,34.50
2022-11-15T00:46:32.436Z,33.17
2022-11-15T00:49:18.269Z,31.63
2022-11-15T00:52:04.385Z,33.17
2022-11-15T00:54:49.916Z,33.83
2022-11-15T00:57:36.166Z,34.67
2022-11-15T01:00:22.050Z,34.53
2022-11-15T01:03:08.007Z,34.47
2022-11-15T01:05:53.813Z,32.90
2022-11-15T01:08:40.992Z,69.63
2022-11-15T01:11:26.855Z,33.50
2022-11-15T01:14:12.457Z,35.83
2022-11-15T01:16:58.361Z,34.33
2022-11-15T01:19:44.294Z,34.43
2022-11-15T01:22:30.066Z,34.77
2022-11-15T01:25:16.499Z,33.53
2022-11-15T01:28:02.611Z,34.27
2022-11-15T01:30:48.474Z,33.27
2022-11-15T01:33:39.675Z,30.83
2022-11-15T01:36:25.668Z,30.80
2022-11-15T01:39:11.923Z,31.43
2022-11-15T01:41:57.823Z,30.47
2022-11-15T01:44:52.732Z,30.97
2022-11-15T01:47:44.675Z,31.70
2022-11-15T01:50:32.853Z,31.57
2022-11-15T01:53:21.202Z,30.00
2022-11-15T01:56:13.182Z,31.40
2022-11-15T01:59:03.634Z,30.77
2022-11-15T02:01:49.794Z,31.20
2022-11-15T02:04:42.079Z,29.97
2022-11-15T02:07:29.505Z,30.50
2022-11-15T02:10:21.722Z,31.37
2022-11-15T02:13:07.662Z,31.13
2022-11-15T02:16:10.451Z,30.17
2022-11-15T02:19:30.920Z,30.03
2022-11-15T02:22:38.396Z,31.87
2022-11-15T02:25:40.609Z,30.57
2022-11-15T02:28:49.687Z,29.97
2022-11-15T02:31:57.109Z,30.37
2022-11-15T02:35:04.053Z,31.13
2022-11-15T02:38:08.746Z,30.17
2022-11-15T02:41:32.709Z,29.97
2022-11-15T02:44:27.788Z,29.30
2022-11-15T02:47:17.321Z,30.80
2022-11-15T02:50:09.887Z,30.20
2022-11-15T02:52:56.051Z,30.77
2022-11-15T02:55:48.382Z,30.50
2022-11-15T02:59:36.781Z,31.47
2022-11-15T03:03:00.097Z,30.07
2022-11-15T03:06:01.528Z,29.33
2022-11-15T03:09:18.435Z,29.60
2022-11-15T03:12:42.769Z,29.87
2022-11-15T03:15:36.207Z,29.87
2022-11-15T03:18:36.944Z,28.57
2022-11-15T03:21:23.913Z,29.20
2022-11-15T03:24:10.377Z,30.57
2022-11-15T03:26:58.554Z,28.23
2022-11-15T03:29:50.646Z,29.23
2022-11-15T03:32:43.288Z,28.20
2022-11-15T03:35:33.279Z,29.43
2022-11-15T03:38:25.716Z,29.37
2022-11-15T03:41:26.744Z,28.60
2022-11-15T03:44:36.233Z,28.90
2022-11-15T03:47:30.246Z,27.03
2022-11-15T03:50:20.592Z,29.37
2022-11-15T03:53:06.523Z,28.53
2022-11-15T03:55:52.533Z,28.20
2022-11-15T03:58:38.563Z,28.90
2022-11-15T04:01:24.713Z,29.03
2022-11-15T04:04:10.825Z,28.77
2022-11-15T04:06:56.714Z,29.80
2022-11-15T04:10:01.098Z,28.97
2022-11-15T04:12:48.732Z,29.27
2022-11-15T04:15:34.524Z,28.53
2022-11-15T04:18:20.373Z,28.90
2022-11-15T04:21:24.959Z,27.87
2022-11-15T04:24:13.342Z,28.10
2022-11-15T04:26:59.068Z,28.03
2022-11-15T04:29:44.820Z,28.93
2022-11-15T04:32:30.300Z,26.83
2022-11-15T04:35:16.301Z,29.33
2022-11-15T04:38:04.076Z,29.13
2022-11-15T04:40:49.751Z,28.47
2022-11-15T04:43:36.111Z,28.57
2022-11-15T04:46:23.260Z,28.57
2022-11-15T04:49:09.040Z,26.53
2022-11-15T04:51:54.892Z,27.47
2022-11-15T04:54:43.091Z,27.60
2022-11-15T04:57:29.096Z,29.77
2022-11-15T05:00:17.782Z,29.37
2022-11-15T05:03:22.019Z,29.17
2022-11-15T05:06:07.926Z,29.60
2022-11-15T05:08:54.507Z,28.93
2022-11-15T05:11:40.793Z,28.80
2022-11-15T05:14:26.290Z,30.43
2022-11-15T05:17:12.331Z,30.67
2022-11-15T05:19:58.362Z,29.40
2022-11-15T05:22:43.835Z,32.90
2022-11-15T05:25:29.765Z,29.77
2022-11-15T05:28:15.216Z,31.27
2022-11-15T05:31:07.469Z,30.20
2022-11-15T05:33:54.745Z,29.23
2022-11-15T05:36:44.132Z,31.10
2022-11-15T05:39:29.769Z,30.73
2022-11-15T05:42:16.966Z,30.70
2022-11-15T05:45:07.326Z,30.13
2022-11-15T05:47:55.415Z,30.87
2022-11-15T05:50:44.929Z,30.50
2022-11-15T05:53:31.959Z,30.03
2022-11-15T05:56:18.100Z,29.27
2022-11-15T05:59:04.175Z,28.87
2022-11-15T06:01:49.985Z,30.97
2022-11-15T06:04:35.774Z,29.70
2022-11-15T06:07:21.844Z,31.00
2022-11-15T06:10:10.721Z,31.27
2022-11-15T06:13:01.221Z,29.33
2022-11-15T06:15:47.121Z,30.33
2022-11-15T06:18:36.566Z,30.27
2022-11-15T06:21:22.054Z,29.43
2022-11-15T06:24:08.167Z,29.30
2022-11-15T06:26:54.316Z,29.20
2022-11-15T06:29:40.084Z,29.17
2022-11-15T06:32:25.866Z,28.67
2022-11-15T06:35:11.705Z,27.97
2022-11-15T06:38:07.466Z,28.10
2022-11-15T06:40:57.116Z,28.43
2022-11-15T06:43:43.407Z,28.07
2022-11-15T06:46:29.024Z,28.07
2022-11-15T06:49:15.348Z,28.27
2022-11-15T06:52:00.886Z,29.07
2022-11-15T06:54:47.156Z,30.73
2022-11-15T06:57:34.313Z,30.43
2022-11-15T07:00:22.334Z,30.23
2022-11-15T07:03:08.555Z,30.73
2022-11-15T07:06:02.777Z,30.90
2022-11-15T07:08:52.502Z,29.17
2022-11-15T07:11:38.072Z,28.57
2022-11-15T07:14:23.944Z,30.07
2022-11-15T07:17:09.883Z,28.10
2022-11-15T07:19:55.296Z,28.70
2022-11-15T07:22:46.271Z,29.63
2022-11-15T07:25:32.301Z,29.30
2022-11-15T07:28:17.995Z,29.93
2022-11-15T07:31:09.271Z,30.13
2022-11-15T07:33:55.120Z,30.00
2022-11-15T07:36:41.006Z,28.53
2022-11-15T07:39:26.875Z,29.60
2022-11-15T07:42:31.373Z,30.50
2022-11-15T07:45:17.485Z,28.03
2022-11-15T07:48:03.106Z,30.20
2022-11-15T07:50:48.951Z,29.87
2022-11-15T07:53:34.790Z,29.00
2022-11-15T07:56:21.812Z,28.23
2022-11-15T07:59:07.354Z,29.03
2022-11-15T08:01:52.963Z,30.47
2022-11-15T08:04:39.253Z,29.40
2022-11-15T08:07:25.087Z,28.13
2022-11-15T08:10:12.892Z,27.67
2022-11-15T08:13:11.604Z,29.13
2022-11-15T08:16:02.531Z,28.10
2022-11-15T08:18:48.449Z,27.77
2022-11-15T08:21:34.353Z,28.07
2022-11-15T08:24:27.192Z,27.13
2022-11-15T08:27:18.748Z,27.20
2022-11-15T08:30:05.602Z,27.70
2022-11-15T08:32:53.244Z,27.73
2022-11-15T08:35:39.437Z,26.03
2022-11-15T08:38:25.329Z,28.33
2022-11-15T08:41:31.724Z,28.43
2022-11-15T08:44:17.593Z,28.13
2022-11-15T08:47:03.118Z,26.20
2022-11-15T08:49:49.163Z,26.73
2022-11-15T08:52:35.190Z,27.77
2022-11-15T08:55:23.496Z,27.30
2022-11-15T08:58:10.437Z,27.60
2022-11-15T09:00:57.138Z,26.13
2022-11-15T09:03:43.249Z,26.40
2022-11-15T09:06:28.812Z,27.03
2022-11-15T09:09:14.775Z,27.93
2022-11-15T09:12:02.667Z,28.87
2022-11-15T09:14:48.758Z,28.73
2022-11-15T09:17:34.729Z,29.03
2022-11-15T09:20:20.607Z,28.63
2022-11-15T09:23:07.049Z,27.33
2022-11-15T09:25:53.487Z,27.87
2022-11-15T09:28:39.306Z,27.40
2022-11-15T09:31:25.867Z,27.20
2022-11-15T09:34:12.452Z,26.57
2022-11-15T09:36:58.191Z,26.33
2022-11-15T09:39:43.830Z,25.40
2022-11-15T09:43:15.345Z,27.07
2022-11-15T09:46:53.550Z,26.17
2022-11-15T09:49:39.390Z,25.40
2022-11-15T09:52:21.884Z,24.80
2022-11-15T09:54:53.856Z,26.43
2022-11-15T09:57:41.232Z,26.13
2022-11-15T10:03:32.417Z,23.97
2022-11-15T10:06:04.034Z,23.57
2022-11-15T10:09:04.404Z,25.10
2022-11-15T10:11:39.478Z,24.53
2022-11-15T10:14:21.744Z,23.23
2022-11-15T10:17:27.176Z,23.27
2022-11-15T10:20:19.549Z,22.60
2022-11-15T10:22:55.706Z,24.17
2022-11-15T10:25:27.100Z,22.83
2022-11-15T10:28:16.184Z,22.90
2022-11-15T10:30:48.018Z,22.80
2022-11-15T10:33:32.690Z,23.80
2022-11-15T10:36:20.524Z,23.40
2022-11-15T10:38:50.590Z,22.47
2022-11-15T10:41:31.015Z,21.20
2022-11-15T10:44:09.922Z,22.23
2022-11-15T10:46:48.608Z,20.17
2022-11-15T10:49:23.361Z,21.30
2022-11-15T10:51:58.421Z,20.20
2022-11-15T10:54:43.949Z,20.63
2022-11-15T10:57:21.928Z,21.53
2022-11-15T10:59:59.766Z,21.00
2022-11-15T11:02:39.046Z,20.10
2022-11-15T11:05:55.381Z,19.97
2022-11-15T11:08:42.194Z,22.33
2022-11-15T11:11:26.304Z,20.70
2022-11-15T11:13:55.252Z,54.90
2022-11-15T11:16:43.424Z,19.77
2022-11-15T11:19:25.432Z,20.23
2022-11-15T11:22:35.023Z,19.20
2022-11-15T11:25:48.817Z,19.07
2022-11-15T11:28:32.589Z,45.50
2022-11-15T11:31:16.059Z,20.17
2022-11-15T11:33:47.995Z,19.23
2022-11-15T11:37:06.125Z,19.73
2022-11-15T11:39:51.001Z,20.13
2022-11-15T11:43:00.468Z,22.97
2022-11-15T11:46:11.300Z,19.40
2022-11-15T11:48:45.665Z,19.20
2022-11-15T11:51:33.951Z,20.10
2022-11-15T11:54:16.159Z,20.43
2022-11-15T11:56:46.546Z,20.07
2022-11-15T11:59:43.632Z,19.57
2022-11-15T12:02:48.617Z,19.70
2022-11-15T12:05:38.590Z,21.60
2022-11-15T12:08:27.217Z,20.87
2022-11-15T12:11:29.519Z,22.00
2022-11-15T12:14:12.741Z,20.53
2022-11-15T12:16:44.169Z,21.23
2022-11-15T12:19:11.311Z,20.40
2022-11-15T12:22:06.801Z,19.97
2022-11-15T12:24:47.027Z,21.50
2022-11-15T12:27:31.859Z,21.50
2022-11-15T12:30:14.342Z,22.20
2022-11-15T12:32:57.554Z,21.90
2022-11-15T12:35:35.753Z,21.63
2022-11-15T12:38:03.173Z,21.03
2022-11-15T12:40:40.041Z,21.90
2022-11-15T12:43:16.371Z,20.63
2022-11-15T12:45:46.256Z,20.93
2022-11-15T12:48:19.618Z,21.23
2022-11-15T12:50:54.430Z,20.97
2022-11-15T12:53:28.444Z,20.60
2022-11-15T12:56:13.933Z,20.47
2022-11-15T12:58:57.099Z,19.27
2022-11-15T13:01:36.452Z,21.40
2022-11-15T13:04:25.144Z,20.67
2022-11-15T13:06:58.096Z,20.87
2022-11-15T13:09:37.333Z,69.20
2022-11-15T13:12:27.135Z,17.80
2022-11-15T13:15:14.226Z,16.80
2022-11-15T13:17:52.147Z,16.30
2022-11-15T13:20:31.504Z,17.10
2022-11-15T13:23:16.704Z,16.80
2022-11-15T13:26:14.095Z,16.77
2022-11-15T13:28:48.518Z,18.87
2022-11-15T13:31:24.937Z,17.37
2022-11-15T13:33:52.743Z,18.47
2022-11-15T13:36:35.085Z,19.57
2022-11-15T13:39:24.268Z,20.00
2022-11-15T13:41:53.186Z,19.23
2022-11-15T13:44:27.260Z,21.07
2022-11-15T13:47:15.317Z,19.40
2022-11-15T13:49:43.309Z,19.53
2022-11-15T13:52:15.348Z,19.97
2022-11-15T13:55:04.653Z,19.43
2022-11-15T13:57:54.116Z,19.70
2022-11-15T14:00:31.026Z,18.10
2022-11-15T14:03:22.366Z,17.27
2022-11-15T14:06:20.953Z,17.97
2022-11-15T14:09:25.629Z,17.80
2022-11-15T14:11:57.888Z,19.20
2022-11-15T14:14:27.789Z,22.60
2022-11-15T14:17:01.007Z,21.33
2022-11-15T14:19:28.078Z,26.13
2022-11-15T14:22:13.694Z,22.30
2022-11-15T14:24:44.223Z,21.20
2022-11-15T14:27:25.543Z,20.63
2022-11-15T14:29:53.578Z,26.63
2022-11-15T14:32:26.955Z,23.70
2022-11-15T14:34:59.949Z,23.43
2022-11-15T14:37:35.923Z,22.77
2022-11-15T14:40:07.623Z,25.33
2022-11-15T14:42:34.703Z,24.60
2022-11-15T14:45:01.893Z,25.37
2022-11-15T14:47:28.997Z,24.80
2022-11-15T14:49:56.176Z,25.57
2022-11-15T14:52:32.771Z,24.67
2022-11-15T14:55:03.188Z,25.73
2022-11-15T14:57:31.516Z,23.80
2022-11-15T14:59:58.666Z,26.30
2022-11-15T15:02:39.892Z,25.13
2022-11-15T15:05:45.936Z,27.03
2022-11-15T15:08:13.355Z,26.83
2022-11-15T15:10:45.076Z,29.13
2022-11-15T15:13:22.591Z,28.70
2022-11-15T15:15:51.430Z,30.07
2022-11-15T15:18:20.918Z,28.13
2022-11-15T15:20:57.291Z,28.77
2022-11-15T15:23:26.499Z,31.43
2022-11-15T15:25:54.144Z,29.13
2022-11-15T15:28:21.362Z,29.13
2022-11-15T15:30:48.563Z,30.50
2022-11-15T15:33:15.877Z,33.33
2022-11-15T15:35:43.391Z,30.87
2022-11-15T15:38:13.486Z,31.90
2022-11-15T15:40:40.764Z,34.30
2022-11-15T15:43:10.058Z,35.10
2022-11-15T15:45:42.395Z,31.67
2022-11-15T15:48:15.710Z,33.13
2022-11-15T15:50:44.031Z,30.50
2022-11-15T15:53:13.040Z,37.40
2022-11-15T15:55:40.159Z,95.53
2022-11-15T15:58:09.060Z,31.43
2022-11-15T16:00:37.840Z,33.43
2022-11-15T16:03:05.007Z,35.27
2022-11-15T16:05:32.232Z,34.57
2022-11-15T16:07:59.673Z,35.67
2022-11-15T16:10:37.861Z,34.80
2022-11-15T16:13:05.092Z,33.23
2022-11-15T16:15:33.226Z,34.83
2022-11-15T16:18:02.408Z,34.07
2022-11-15T16:20:45.418Z,31.93
2022-11-15T16:23:18.816Z,34.97
2022-11-15T16:25:53.492Z,35.07
2022-11-15T16:28:27.826Z,36.20
2022-11-15T16:31:06.311Z,34.13
2022-11-15T16:33:34.106Z,36.27
2022-11-15T16:36:02.421Z,36.80
2022-11-15T16:38:30.681Z,35.73
2022-11-15T16:40:58.127Z,38.53
2022-11-15T16:43:26.218Z,38.33
2022-11-15T16:45:53.416Z,37.10
2022-11-15T16:48:27.459Z,37.70
2022-11-15T16:50:59.289Z,37.40
2022-11-15T16:53:28.105Z,37.80
2022-11-15T16:55:56.344Z,38.00
2022-11-15T16:58:23.970Z,40.43
2022-11-15T17:00:53.511Z,40.93
2022-11-15T17:03:24.906Z,38.53
2022-11-15T17:05:52.697Z,40.47
2022-11-15T17:08:22.064Z,42.37
2022-11-15T17:10:49.508Z,42.33
2022-11-15T17:13:16.742Z,40.93
2022-11-15T17:15:44.013Z,43.53
2022-11-15T17:18:15.673Z,68.90
2022-11-15T17:20:43.561Z,46.77
2022-11-15T17:23:15.141Z,40.13
2022-11-15T17:25:43.399Z,41.50
2022-11-15T17:28:11.131Z,39.27
2022-11-15T17:30:43.302Z,44.43
2022-11-15T17:33:10.848Z,40.33
2022-11-15T17:35:38.570Z,42.33
2022-11-15T17:38:05.809Z,37.43
2022-11-15T17:40:33.015Z,41.50
2022-11-15T17:43:00.214Z,39.10
2022-11-15T17:45:30.030Z,34.07
2022-11-15T17:47:57.197Z,36.17
2022-11-15T17:50:24.723Z,39.63
2022-11-15T17:52:52.289Z,34.97
2022-11-15T17:55:19.629Z,41.10
2022-11-15T17:57:47.812Z,42.00
2022-11-15T18:00:15.998Z,39.70
2022-11-15T18:02:43.260Z,43.40
2022-11-15T18:05:10.759Z,41.30
2022-11-15T18:07:38.366Z,40.57
2022-11-15T18:10:06.022Z,39.97
2022-11-15T18:12:33.333Z,39.30
2022-11-15T18:15:01.322Z,38.13
2022-11-15T18:17:28.723Z,35.53
2022-11-15T18:19:55.920Z,38.53
2022-11-15T18:22:23.473Z,36.17
2022-11-15T18:24:50.738Z,38.17
2022-11-15T18:27:17.854Z,32.30
2022-11-15T18:29:45.023Z,34.97
2022-11-15T18:32:15.005Z,32.80
2022-11-15T18:34:42.308Z,35.13
2022-11-15T18:37:09.703Z,35.87
2022-11-15T18:39:37.762Z,36.93
2022-11-15T18:42:05.363Z,36.30
2022-11-15T18:44:32.967Z,33.30
2022-11-15T18:47:00.316Z,35.33
2022-11-15T18:49:27.644Z,37.60
2022-11-15T18:51:55.039Z,38.33
2022-11-15T18:54:25.524Z,35.00
2022-11-15T18:56:55.457Z,33.87
2022-11-15T18:59:22.900Z,36.23
2022-11-15T19:01:52.156Z,35.63
2022-11-15T19:04:20.901Z,35.97
2022-11-15T19:06:50.494Z,35.90
2022-11-15T19:09:21.487Z,42.47
2022-11-15T19:11:51.645Z,37.47
2022-11-15T19:14:24.127Z,38.00
2022-11-15T19:16:55.206Z,38.20
2022-11-15T19:19:25.569Z,38.10
2022-11-15T19:21:53.281Z,37.00
2022-11-15T19:24:20.823Z,34.50
2022-11-15T19:26:48.168Z,38.50
2022-11-15T19:29:15.762Z,60.13
2022-11-15T19:31:43.518Z,49.33
2022-11-15T19:34:11.266Z,36.73
2022-11-15T19:36:44.184Z,39.60
2022-11-15T19:39:14.413Z,39.20
2022-11-15T19:41:43.964Z,35.67
2022-11-15T19:44:12.956Z,37.70
2022-11-15T19:46:41.138Z,35.00
2022-11-15T19:49:11.350Z,37.07
2022-11-15T19:51:41.685Z,38.97
2022-11-15T19:54:10.455Z,37.10
2022-11-15T19:56:39.965Z,41.65
2022-11-15T19:59:08.343Z,42.37
2022-11-15T20:01:38.891Z,36.90
2022-11-15T20:04:08.039Z,37.63
2022-11-15T20:06:40.047Z,38.60
2022-11-15T20:09:08.641Z,39.03
2022-11-15T20:11:38.235Z,37.93
2022-11-15T20:14:07.850Z,38.60
2022-11-15T20:16:35.576Z,37.93
2022-11-15T20:19:02.862Z,38.87
2022-11-15T20:21:30.317Z,36.83
2022-11-15T20:23:57.679Z,40.87
2022-11-15T20:26:24.958Z,39.10
2022-11-15T20:28:52.502Z,37.23
2022-11-15T20:31:22.045Z,37.57
2022-11-15T20:33:49.548Z,37.67
2022-11-15T20:36:17.056Z,36.17
2022-11-15T20:38:45.142Z,36.60
2022-11-15T20:41:13.887Z,36.77
2022-11-15T20:43:43.699Z,34.73
2022-11-15T20:46:13.537Z,35.53
2022-11-15T20:48:41.395Z,31.97
2022-11-15T20:51:15.409Z,32.27
2022-11-15T20:53:44.636Z,31.03
2022-11-15T20:56:21.709Z,32.17
2022-11-15T20:58:52.283Z,35.87
2022-11-15T21:01:25.147Z,33.10
2022-11-15T21:03:56.842Z,33.90
2022-11-15T21:06:25.891Z,31.33
2022-11-15T21:09:12.865Z,30.27
2022-11-15T21:11:59.761Z,34.00
2022-11-15T21:14:26.993Z,32.00
2022-11-15T21:16:54.479Z,32.70
2022-11-15T21:19:27.216Z,41.47
2022-11-15T21:21:59.189Z,31.90
2022-11-15T21:24:26.569Z,28.67
2022-11-15T21:26:55.549Z,30.40
2022-11-15T21:29:23.617Z,29.73
2022-11-15T21:31:52.918Z,28.57
2022-11-15T21:34:20.956Z,30.80
2022-11-15T21:36:48.484Z,28.97
2022-11-15T21:39:16.315Z,26.67
2022-11-15T21:41:43.647Z,25.70
2022-11-15T21:44:11.196Z,24.67
2022-11-15T21:46:38.505Z,23.10
2022-11-15T21:49:06.667Z,22.27
2022-11-15T21:51:34.553Z,22.03
2022-11-15T21:54:02.091Z,22.57
2022-11-15T21:56:30.340Z,23.20
2022-11-15T21:58:57.753Z,22.80
2022-11-15T22:01:45.157Z,23.30
2022-11-15T22:04:13.531Z,20.63
2022-11-15T22:06:40.811Z,23.10
2022-11-15T22:09:08.178Z,24.50
2022-11-15T22:11:36.069Z,22.43
2022-11-15T22:14:03.701Z,21.03
2022-11-15T22:16:31.435Z,21.17
2022-11-15T22:18:59.019Z,21.60
2022-11-15T22:21:28.315Z,20.93
2022-11-15T22:23:55.488Z,18.83
2022-11-15T22:26:25.976Z,20.10
2022-11-15T22:28:53.300Z,19.43
2022-11-15T22:31:20.544Z,19.53
2022-11-15T22:33:47.723Z,18.87
2022-11-15T22:36:15.719Z,19.57
2022-11-15T22:38:45.657Z,18.70
2022-11-15T22:41:13.086Z,17.93
2022-11-15T22:43:40.548Z,19.20
2022-11-15T22:46:08.652Z,18.63
2022-11-15T22:48:39.020Z,20.23
2022-11-15T22:51:07.741Z,18.30
2022-11-15T22:53:35.287Z,19.53
2022-11-15T22:56:05.971Z,17.77
2022-11-15T22:58:34.476Z,17.67
2022-11-15T23:01:05.252Z,18.10
2022-11-15T23:03:34.010Z,16.63
2022-11-15T23:06:08.292Z,17.40
2022-11-15T23:08:36.220Z,17.47
2022-11-15T23:11:23.622Z,17.00
2022-11-15T23:13:52.421Z,17.73
2022-11-15T23:16:23.948Z,16.40
2022-11-15T23:19:12.809Z,16.57
2022-11-15T23:22:04.949Z,15.73
2022-11-15T23:24:33.693Z,14.43
2022-11-15T23:27:04.639Z,17.27
2022-11-15T23:29:31.831Z,14.97
2022-11-15T23:32:17.860Z,16.10
2022-11-15T23:34:46.021Z,14.90
2022-11-15T23:37:15.822Z,15.37
2022-11-15T23:39:43.193Z,14.57
2022-11-15T23:42:19.740Z,15.20
2022-11-15T23:44:50.516Z,14.83
2022-11-15T23:47:19.189Z,14.87
2022-11-15T23:49:46.492Z,15.00
2022-11-15T23:52:16.117Z,15.20
2022-11-15T23:54:43.907Z,15.27
2022-11-15T23:57:12.517Z,14.20
2022-11-15T23:59:43.813Z,14.63
